sensor_id;sensor_type;location;lat;lon;timestamp;P1;durP1;ratioP1;P2;durP2;ratioP2
20104;SDS011;10212;42.714;23.310;2023-03-03T00:04:52;14.32;;;4.78;;
20104;SDS011;10212;42.714;23.310;2023-03-03T00:14:53;5.25;;;4.05;;
20104;SDS011;10212;42.714;23.310;2023-03-03T00:24:55;5.88;;;4.65;;
20104;SDS011;10212;42.714;23.310;2023-03-03T00:45:33;7.88;;;5.55;;
20104;SDS011;10212;42.714;23.310;2023-03-03T00:55:42;8.13;;;5.28;;
20104;SDS011;10212;42.714;23.310;2023-03-03T01:05:43;11.13;;;6.30;;
20104;SDS011;10212;42.714;23.310;2023-03-03T01:15:44;9.27;;;6.25;;
20104;SDS011;10212;42.714;23.310;2023-03-03T01:25:44;10.17;;;6.43;;
20104;SDS011;10212;42.714;23.310;2023-03-03T01:35:45;10.73;;;7.00;;
20104;SDS011;10212;42.714;23.310;2023-03-03T01:55:47;9.77;;;6.20;;
20104;SDS011;10212;42.714;23.310;2023-03-03T02:05:52;10.18;;;6.05;;
20104;SDS011;10212;42.714;23.310;2023-03-03T02:15:56;7.30;;;5.30;;
20104;SDS011;10212;42.714;23.310;2023-03-03T02:26:02;8.63;;;4.60;;
20104;SDS011;10212;42.714;23.310;2023-03-03T02:36:05;6.40;;;4.80;;
20104;SDS011;10212;42.714;23.310;2023-03-03T02:46:05;6.57;;;4.53;;
20104;SDS011;10212;42.714;23.310;2023-03-03T02:56:06;8.93;;;6.05;;
20104;SDS011;10212;42.714;23.310;2023-03-03T03:06:08;7.50;;;5.28;;
20104;SDS011;10212;42.714;23.310;2023-03-03T03:16:08;9.38;;;6.28;;
20104;SDS011;10212;42.714;23.310;2023-03-03T03:26:09;10.82;;;6.18;;
20104;SDS011;10212;42.714;23.310;2023-03-03T03:36:10;10.15;;;6.45;;
20104;SDS011;10212;42.714;23.310;2023-03-03T03:46:11;10.17;;;6.50;;
20104;SDS011;10212;42.714;23.310;2023-03-03T03:56:12;13.95;;;8.35;;
20104;SDS011;10212;42.714;23.310;2023-03-03T04:06:12;16.10;;;10.27;;
20104;SDS011;10212;42.714;23.310;2023-03-03T04:16:13;17.00;;;11.00;;
20104;SDS011;10212;42.714;23.310;2023-03-03T04:26:13;16.40;;;10.60;;
20104;SDS011;10212;42.714;23.310;2023-03-03T04:36:14;21.20;;;11.55;;
20104;SDS011;10212;42.714;23.310;2023-03-03T04:46:14;19.85;;;11.80;;
20104;SDS011;10212;42.714;23.310;2023-03-03T04:56:15;24.08;;;13.43;;
20104;SDS011;10212;42.714;23.310;2023-03-03T05:06:15;24.55;;;13.63;;
20104;SDS011;10212;42.714;23.310;2023-03-03T05:16:17;27.98;;;14.70;;
20104;SDS011;10212;42.714;23.310;2023-03-03T05:26:18;27.17;;;15.32;;
20104;SDS011;10212;42.714;23.310;2023-03-03T05:36:18;23.80;;;14.60;;
20104;SDS011;10212;42.714;23.310;2023-03-03T05:46:19;29.40;;;15.70;;
20104;SDS011;10212;42.714;23.310;2023-03-03T05:56:19;27.50;;;16.27;;
20104;SDS011;10212;42.714;23.310;2023-03-03T06:06:20;26.88;;;15.05;;
20104;SDS011;10212;42.714;23.310;2023-03-03T06:16:20;23.55;;;13.13;;
20104;SDS011;10212;42.714;23.310;2023-03-03T06:26:21;22.83;;;13.20;;
20104;SDS011;10212;42.714;23.310;2023-03-03T06:36:22;20.38;;;12.13;;
20104;SDS011;10212;42.714;23.310;2023-03-03T06:46:29;19.90;;;11.93;;
20104;SDS011;10212;42.714;23.310;2023-03-03T06:56:30;21.63;;;12.93;;
20104;SDS011;10212;42.714;23.310;2023-03-03T07:06:35;22.55;;;12.55;;
20104;SDS011;10212;42.714;23.310;2023-03-03T07:16:37;18.45;;;11.48;;
20104;SDS011;10212;42.714;23.310;2023-03-03T07:26:38;17.17;;;11.50;;
20104;SDS011;10212;42.714;23.310;2023-03-03T07:36:38;20.70;;;12.30;;
20104;SDS011;10212;42.714;23.310;2023-03-03T07:46:41;21.50;;;12.77;;
20104;SDS011;10212;42.714;23.310;2023-03-03T07:56:51;20.30;;;12.70;;
20104;SDS011;10212;42.714;23.310;2023-03-03T08:16:56;17.42;;;11.48;;
20104;SDS011;10212;42.714;23.310;2023-03-03T08:26:57;18.65;;;11.02;;
20104;SDS011;10212;42.714;23.310;2023-03-03T08:36:58;17.50;;;10.93;;
20104;SDS011;10212;42.714;23.310;2023-03-03T08:46:58;17.00;;;10.50;;
20104;SDS011;10212;42.714;23.310;2023-03-03T08:56:59;18.27;;;12.13;;
20104;SDS011;10212;42.714;23.310;2023-03-03T09:06:59;17.45;;;11.13;;
20104;SDS011;10212;42.714;23.310;2023-03-03T09:17:00;15.95;;;9.55;;
20104;SDS011;10212;42.714;23.310;2023-03-03T09:27:06;16.90;;;9.85;;
20104;SDS011;10212;42.714;23.310;2023-03-03T09:37:22;14.98;;;9.40;;
20104;SDS011;10212;42.714;23.310;2023-03-03T10:18:54;15.60;;;9.70;;
20104;SDS011;10212;42.714;23.310;2023-03-03T11:00:30;17.70;;;10.82;;
20104;SDS011;10212;42.714;23.310;2023-03-03T11:10:51;19.38;;;11.60;;
20104;SDS011;10212;42.714;23.310;2023-03-03T11:21:28;20.75;;;14.23;;
20104;SDS011;10212;42.714;23.310;2023-03-03T11:31:49;21.23;;;13.70;;
20104;SDS011;10212;42.714;23.310;2023-03-03T12:12:38;22.60;;;14.88;;
20104;SDS011;10212;42.714;23.310;2023-03-03T12:53:31;13.02;;;9.52;;
20104;SDS011;10212;42.714;23.310;2023-03-03T13:14:13;13.77;;;10.00;;
20104;SDS011;10212;42.714;23.310;2023-03-03T13:44:54;15.33;;;10.73;;
20104;SDS011;10212;42.714;23.310;2023-03-03T14:06:04;12.85;;;8.98;;
20104;SDS011;10212;42.714;23.310;2023-03-03T14:36:04;9.82;;;7.35;;
20104;SDS011;10212;42.714;23.310;2023-03-03T14:56:33;15.90;;;11.07;;
20104;SDS011;10212;42.714;23.310;2023-03-03T15:16:40;8.90;;;6.72;;
20104;SDS011;10212;42.714;23.310;2023-03-03T15:27:27;11.35;;;8.23;;
20104;SDS011;10212;42.714;23.310;2023-03-03T15:47:46;9.48;;;6.90;;
20104;SDS011;10212;42.714;23.310;2023-03-03T16:08:08;10.57;;;7.93;;
20104;SDS011;10212;42.714;23.310;2023-03-03T16:38:36;15.57;;;10.98;;
20104;SDS011;10212;42.714;23.310;2023-03-03T16:49:42;19.08;;;12.50;;
20104;SDS011;10212;42.714;23.310;2023-03-03T17:19:47;18.80;;;10.83;;
20104;SDS011;10212;42.714;23.310;2023-03-03T18:52:22;23.92;;;15.35;;
20104;SDS011;10212;42.714;23.310;2023-03-03T19:02:36;25.33;;;14.38;;
20104;SDS011;10212;42.714;23.310;2023-03-03T19:13:02;10.63;;;7.63;;
20104;SDS011;10212;42.714;23.310;2023-03-03T19:23:09;8.30;;;5.38;;
20104;SDS011;10212;42.714;23.310;2023-03-03T19:33:34;7.70;;;5.25;;
20104;SDS011;10212;42.714;23.310;2023-03-03T19:54:27;9.13;;;5.68;;
20104;SDS011;10212;42.714;23.310;2023-03-03T20:04:59;11.82;;;7.10;;
20104;SDS011;10212;42.714;23.310;2023-03-03T20:25:24;11.85;;;7.65;;
20104;SDS011;10212;42.714;23.310;2023-03-03T20:35:41;12.07;;;7.97;;
20104;SDS011;10212;42.714;23.310;2023-03-03T20:56:23;11.35;;;7.65;;
20104;SDS011;10212;42.714;23.310;2023-03-03T21:06:47;14.77;;;9.77;;
20104;SDS011;10212;42.714;23.310;2023-03-03T21:16:48;19.17;;;11.52;;
20104;SDS011;10212;42.714;23.310;2023-03-03T21:26:57;17.20;;;11.15;;
20104;SDS011;10212;42.714;23.310;2023-03-03T21:37:06;17.70;;;11.00;;
20104;SDS011;10212;42.714;23.310;2023-03-03T21:57:11;15.63;;;10.07;;
20104;SDS011;10212;42.714;23.310;2023-03-03T22:07:12;18.45;;;10.68;;
20104;SDS011;10212;42.714;23.310;2023-03-03T22:17:13;20.73;;;11.88;;
20104;SDS011;10212;42.714;23.310;2023-03-03T22:27:13;19.45;;;11.85;;
20104;SDS011;10212;42.714;23.310;2023-03-03T22:37:14;21.00;;;12.32;;
20104;SDS011;10212;42.714;23.310;2023-03-03T22:47:14;16.90;;;10.82;;
20104;SDS011;10212;42.714;23.310;2023-03-03T22:57:15;19.75;;;11.80;;
20104;SDS011;10212;42.714;23.310;2023-03-03T23:07:15;23.67;;;13.90;;
20104;SDS011;10212;42.714;23.310;2023-03-03T23:17:15;24.45;;;13.82;;
20104;SDS011;10212;42.714;23.310;2023-03-03T23:27:16;19.05;;;11.13;;
20104;SDS011;10212;42.714;23.310;2023-03-03T23:37:16;17.42;;;11.48;;
20104;SDS011;10212;42.714;23.310;2023-03-03T23:47:17;20.15;;;11.93;;
20104;SDS011;10212;42.714;23.310;2023-03-03T23:57:18;19.83;;;12.25;;
